createdAt,value
2024-04-24T00:00:21.421Z,102329.41
2024-04-24T00:02:50.646Z,102323.03
2024-04-24T00:05:17.441Z,102323.44
2024-04-24T00:07:44.284Z,102317.47
2024-04-24T00:10:11.006Z,102318.28
2024-04-24T00:12:40.037Z,102311.09
2024-04-24T00:15:06.781Z,102304.31
2024-04-24T00:17:33.745Z,102298.38
2024-04-24T00:20:00.737Z,102294.78
2024-04-24T00:22:29.859Z,102291.22
2024-04-24T00:24:56.673Z,102282.09
2024-04-24T00:27:28.051Z,102272.53
2024-04-24T00:29:57.006Z,102272.53
2024-04-24T00:32:23.731Z,102264.97
2024-04-24T00:34:50.490Z,102268.56
2024-04-24T00:37:19.778Z,102263.75
2024-04-24T00:39:49.010Z,102260.97
2024-04-24T00:42:24.360Z,102254.63
2024-04-24T00:44:54.125Z,102253.84
2024-04-24T00:47:21.783Z,102250.66
2024-04-24T00:49:49.970Z,102261.38
2024-04-24T00:52:17.020Z,102250.63
2024-04-24T00:54:43.991Z,102246.66
2024-04-24T00:57:10.976Z,102249.06
2024-04-24T00:59:37.764Z,102241.88
2024-04-24T01:02:04.612Z,102244.25
2024-04-24T01:04:31.423Z,102243.84
2024-04-24T01:06:58.155Z,102241.88
2024-04-24T01:09:24.870Z,102240.28
2024-04-24T01:11:52.020Z,102237.09
2024-04-24T01:14:19.041Z,102231.94
2024-04-24T01:16:48.530Z,102242.25
2024-04-24T01:19:44.118Z,102236.28
2024-04-24T01:22:29.460Z,102233.44
2024-04-24T01:25:08.112Z,102238.06
2024-04-24T01:27:34.942Z,102245.88
2024-04-24T01:30:01.828Z,102238.22
2024-04-24T01:32:28.692Z,102240.13
2024-04-24T01:34:58.179Z,102236.47
2024-04-24T01:37:24.937Z,102240.38
2024-04-24T01:39:51.656Z,102237.16
2024-04-24T01:42:18.345Z,102236.34
2024-04-24T01:44:45.053Z,102237.47
2024-04-24T01:47:12.143Z,102236.25
2024-04-24T01:49:41.400Z,102230.28
2024-04-24T01:52:08.217Z,102227.88
2024-04-24T01:54:34.954Z,102233.38
2024-04-24T01:57:01.707Z,102231.34
2024-04-24T01:59:28.488Z,102232.50
2024-04-24T02:01:55.213Z,102232.88
2024-04-24T02:04:21.995Z,102226.50
2024-04-24T02:06:48.761Z,102229.66
2024-04-24T02:09:15.534Z,102223.28
2024-04-24T02:11:42.360Z,102231.19
2024-04-24T02:14:09.232Z,102226.03
2024-04-24T02:16:35.984Z,102223.22
2024-04-24T02:19:02.670Z,102218.03
2024-04-24T02:21:31.640Z,102219.63
2024-04-24T02:24:01.695Z,102217.59
2024-04-24T02:26:28.662Z,102215.22
2024-04-24T02:28:55.415Z,102212.03
2024-04-24T02:31:22.158Z,102204.09
2024-04-24T02:33:48.888Z,102203.69
2024-04-24T02:36:15.629Z,102202.47
2024-04-24T02:38:42.359Z,102210.34
2024-04-24T02:41:09.222Z,102204.41
2024-04-24T02:43:36.016Z,102194.88
2024-04-24T02:46:02.821Z,102193.28
2024-04-24T02:48:29.602Z,102190.88
2024-04-24T02:50:56.428Z,102188.50
2024-04-24T02:53:23.212Z,102183.72
2024-04-24T02:55:50.116Z,102178.53
2024-04-24T02:58:16.873Z,102174.19
2024-04-24T03:00:43.617Z,102175.34
2024-04-24T03:05:37.063Z,102173.75
2024-04-24T03:08:04.115Z,102173.34
2024-04-24T03:10:30.932Z,102167.38
2024-04-24T03:13:00.123Z,102164.19
2024-04-24T03:15:27.207Z,102165.34
2024-04-24T03:17:54.042Z,102157.44
2024-04-24T03:20:21.038Z,102155.03
2024-04-24T03:22:47.921Z,102158.97
2024-04-24T03:25:14.678Z,102162.94
2024-04-24T03:27:41.385Z,102156.97
2024-04-24T03:30:08.583Z,102158.13
2024-04-24T03:32:35.497Z,102158.53
2024-04-24T03:35:02.424Z,102154.53
2024-04-24T03:37:29.220Z,102159.66
2024-04-24T03:39:55.912Z,102164.38
2024-04-24T03:42:22.701Z,102153.69
2024-04-24T03:44:49.519Z,102154.88
2024-04-24T03:47:16.305Z,102154.81
2024-04-24T03:49:43.090Z,102146.53
2024-04-24T03:52:12.133Z,102151.28
2024-04-24T03:54:38.830Z,102141.75
2024-04-24T03:57:05.549Z,102142.13
2024-04-24T03:59:32.305Z,102136.19
2024-04-24T04:01:59.044Z,102134.56
2024-04-24T04:04:28.029Z,102136.53
2024-04-24T04:06:54.782Z,102133.34
2024-04-24T04:09:21.501Z,102138.13
2024-04-24T04:11:48.368Z,102137.69
2024-04-24T04:14:15.158Z,102132.94
2024-04-24T04:16:41.890Z,102127.03
2024-04-24T04:19:08.611Z,102126.69
2024-04-24T04:21:38.439Z,102133.19
2024-04-24T04:24:05.291Z,102128.59
2024-04-24T04:26:34.313Z,102117.72
2024-04-24T04:29:01.047Z,102117.94
2024-04-24T04:31:27.860Z,102115.78
2024-04-24T04:33:54.621Z,102111.22
2024-04-24T04:36:21.327Z,102119.28
2024-04-24T04:38:48.057Z,102119.00
2024-04-24T04:41:14.853Z,102116.31
2024-04-24T04:43:44.654Z,102114.41
2024-04-24T04:46:13.622Z,102108.84
2024-04-24T04:48:40.430Z,102100.50
2024-04-24T04:51:07.281Z,102099.69
2024-04-24T04:53:36.588Z,102097.28
2024-04-24T04:56:03.501Z,102105.19
2024-04-24T04:58:32.488Z,102099.59
2024-04-24T05:00:59.556Z,102096.34
2024-04-24T05:03:26.454Z,102095.16
2024-04-24T05:05:55.721Z,102091.53
2024-04-24T05:08:22.501Z,102093.84
2024-04-24T05:10:51.590Z,102089.44
2024-04-24T05:13:18.611Z,102098.19
2024-04-24T05:15:45.380Z,102095.84
2024-04-24T05:18:14.278Z,102100.66
2024-04-24T05:20:41.329Z,102097.09
2024-04-24T05:23:08.165Z,102090.75
2024-04-24T05:25:35.002Z,102104.34
2024-04-24T05:28:20.494Z,102092.41
2024-04-24T05:30:47.389Z,102101.59
2024-04-24T05:33:14.172Z,102104.03
2024-04-24T05:35:43.289Z,102102.06
2024-04-24T05:38:10.118Z,102110.00
2024-04-24T05:40:36.914Z,102102.06
2024-04-24T05:43:06.474Z,102098.13
2024-04-24T05:45:33.191Z,102103.31
2024-04-24T05:48:01.735Z,102100.91
2024-04-24T05:50:28.621Z,102085.44
2024-04-24T05:52:55.477Z,102098.91
2024-04-24T05:55:24.193Z,102092.56
2024-04-24T05:57:50.897Z,102091.38
2024-04-24T06:00:17.736Z,102091.34
2024-04-24T06:02:44.518Z,102080.22
2024-04-24T06:05:13.861Z,102078.22
2024-04-24T06:07:42.232Z,102084.16
2024-04-24T06:10:08.976Z,102077.81
2024-04-24T06:12:35.754Z,102069.84
2024-04-24T06:15:02.469Z,102075.41
2024-04-24T06:17:29.325Z,102073.03
2024-04-24T06:19:56.984Z,102076.56
2024-04-24T06:22:23.836Z,102067.84
2024-04-24T06:24:50.640Z,102063.06
2024-04-24T06:27:17.520Z,102062.25
2024-04-24T06:29:47.164Z,102061.44
2024-04-24T06:32:14.103Z,102058.66
2024-04-24T06:34:42.549Z,102054.69
2024-04-24T06:37:09.741Z,102058.25
2024-04-24T06:39:36.451Z,102064.59
2024-04-24T06:42:03.252Z,102055.09
2024-04-24T06:44:30.082Z,102050.28
2024-04-24T06:46:56.877Z,102059.03
2024-04-24T06:49:23.677Z,102048.31
2024-04-24T06:51:50.469Z,102043.53
2024-04-24T06:54:17.263Z,102040.75
2024-04-24T06:56:44.332Z,102039.19
2024-04-24T06:59:11.351Z,102048.28
2024-04-24T07:01:38.419Z,102045.50
2024-04-24T07:04:05.360Z,102041.56
2024-04-24T07:06:32.129Z,102032.53
2024-04-24T07:08:58.948Z,102024.28
2024-04-24T07:11:25.730Z,102033.00
2024-04-24T07:13:53.014Z,102030.53
2024-04-24T07:16:19.773Z,102028.91
2024-04-24T07:18:46.668Z,102034.06
2024-04-24T07:21:15.959Z,102032.47
2024-04-24T07:23:42.728Z,102037.25
2024-04-24T07:26:09.451Z,102039.63
2024-04-24T07:28:38.546Z,102048.81
2024-04-24T07:31:05.374Z,102050.81
2024-04-24T07:33:32.231Z,102044.88
2024-04-24T07:35:59.351Z,102050.44
2024-04-24T07:38:26.127Z,102048.06
2024-04-24T07:40:53.001Z,102053.63
2024-04-24T07:43:19.762Z,102050.03
2024-04-24T07:45:46.615Z,102061.16
2024-04-24T07:48:13.663Z,102049.63
2024-04-24T07:50:40.722Z,102054.78
2024-04-24T07:53:07.467Z,102056.41
2024-04-24T07:55:34.259Z,102058.38
2024-04-24T07:58:00.990Z,102064.75
2024-04-24T08:00:27.718Z,102071.88
2024-04-24T08:02:54.555Z,102064.72
2024-04-24T08:05:21.582Z,102073.47
2024-04-24T08:07:53.184Z,102065.53
2024-04-24T08:10:20.029Z,102066.72
2024-04-24T08:12:46.838Z,102061.16
2024-04-24T08:15:13.551Z,102062.34
2024-04-24T08:17:40.444Z,102061.94
2024-04-24T08:20:10.234Z,102056.78
2024-04-24T08:22:41.810Z,102061.94
2024-04-24T08:25:08.674Z,102058.78
2024-04-24T08:27:35.395Z,102059.16
2024-04-24T08:30:02.257Z,102060.78
2024-04-24T08:32:29.495Z,102057.59
2024-04-24T08:34:56.546Z,102054.00
2024-04-24T08:37:25.612Z,102049.63
2024-04-24T08:39:52.318Z,102040.09
2024-04-24T08:42:19.510Z,102033.72
2024-04-24T08:44:46.919Z,102036.09
2024-04-24T08:47:15.768Z,102028.94
2024-04-24T08:49:45.505Z,102028.91
2024-04-24T08:52:14.092Z,102026.53
2024-04-24T08:54:45.774Z,102024.94
2024-04-24T08:57:14.571Z,102028.91
2024-04-24T08:59:48.147Z,102022.94
2024-04-24T09:02:16.271Z,102030.50
2024-04-24T09:04:48.365Z,102025.72
2024-04-24T09:07:21.097Z,102021.75
2024-04-24T09:09:48.302Z,102016.97
2024-04-24T09:12:17.136Z,102028.88
2024-04-24T09:14:46.095Z,102022.53
2024-04-24T09:17:13.161Z,102021.72
2024-04-24T09:19:43.589Z,102022.94
2024-04-24T09:22:10.379Z,102023.31
2024-04-24T09:24:37.924Z,102017.34
2024-04-24T09:27:07.199Z,102020.53
2024-04-24T09:29:34.123Z,102021.72
2024-04-24T09:32:03.289Z,102020.94
2024-04-24T09:34:30.118Z,102020.94
2024-04-24T09:36:57.898Z,102019.34
2024-04-24T09:39:26.000Z,102013.75
2024-04-24T09:41:52.890Z,102016.97
2024-04-24T09:44:24.620Z,102010.97
2024-04-24T09:46:56.140Z,102010.97
2024-04-24T09:49:23.330Z,102015.75
2024-04-24T09:51:51.759Z,102014.97
2024-04-24T09:54:19.300Z,102016.13
2024-04-24T09:56:49.481Z,102017.75
2024-04-24T09:59:19.591Z,102006.19
2024-04-24T10:01:54.834Z,102005.75
2024-04-24T10:04:28.954Z,102004.47
2024-04-24T10:07:02.251Z,102007.25
2024-04-24T10:09:32.866Z,102007.19
2024-04-24T10:12:09.697Z,101998.81
2024-04-24T10:14:43.570Z,101994.81
2024-04-24T10:17:13.517Z,102005.09
2024-04-24T10:19:45.386Z,101998.22
2024-04-24T10:22:12.322Z,101994.97
2024-04-24T10:24:39.770Z,102004.50
2024-04-24T10:27:06.939Z,101995.38
2024-04-24T10:29:34.814Z,101982.63
2024-04-24T10:32:03.081Z,101981.78
2024-04-24T10:34:31.357Z,101972.56
2024-04-24T10:37:00.337Z,101963.78
2024-04-24T10:39:27.571Z,101966.56
2024-04-24T10:41:57.812Z,101967.00
2024-04-24T10:44:24.690Z,101967.38
2024-04-24T10:46:51.712Z,101961.41
2024-04-24T10:49:18.506Z,101970.94
2024-04-24T10:51:50.898Z,101956.56
2024-04-24T10:54:17.745Z,101957.31
2024-04-24T10:56:48.407Z,101947.75
2024-04-24T10:59:15.539Z,101946.56
2024-04-24T11:01:52.865Z,101940.13
2024-04-24T11:04:24.878Z,101935.72
2024-04-24T11:06:51.832Z,101928.97
2024-04-24T11:09:21.310Z,101932.53
2024-04-24T11:11:50.827Z,101931.75
2024-04-24T11:14:20.146Z,101924.91
2024-04-24T11:16:57.222Z,101926.03
2024-04-24T11:19:24.431Z,101925.53
2024-04-24T11:21:51.268Z,101920.28
2024-04-24T11:24:29.019Z,101917.75
2024-04-24T11:26:55.752Z,101917.69
2024-04-24T11:29:22.523Z,101921.66
2024-04-24T11:31:50.002Z,101915.66
2024-04-24T11:34:17.543Z,101913.28
2024-04-24T11:36:46.797Z,101916.88
2024-04-24T11:39:15.664Z,101916.09
2024-04-24T11:41:43.096Z,101904.13
2024-04-24T11:44:10.861Z,101910.06
2024-04-24T11:46:40.003Z,101909.31
2024-04-24T11:49:09.784Z,101903.31
2024-04-24T11:51:38.238Z,101898.41
2024-04-24T11:54:05.201Z,101901.50
2024-04-24T11:56:35.847Z,101895.81
2024-04-24T11:59:05.121Z,101893.31
2024-04-24T12:01:33.744Z,101886.53
2024-04-24T12:04:01.310Z,101890.91
2024-04-24T12:06:29.658Z,101889.75
2024-04-24T12:09:01.409Z,101878.22
2024-04-24T12:11:30.635Z,101883.81
2024-04-24T12:13:58.268Z,101873.41
2024-04-24T12:16:25.246Z,101873.00
2024-04-24T12:18:52.246Z,101866.19
2024-04-24T12:21:19.022Z,101863.84
2024-04-24T12:23:45.878Z,101859.06
2024-04-24T12:26:12.656Z,101862.47
2024-04-24T12:28:39.399Z,101858.06
2024-04-24T12:31:06.168Z,101851.56
2024-04-24T12:33:33.449Z,101852.75
2024-04-24T12:36:02.526Z,101846.09
2024-04-24T12:38:31.643Z,101831.31
2024-04-24T12:41:00.658Z,101841.22
2024-04-24T12:43:27.448Z,101841.00
2024-04-24T12:45:54.195Z,101845.22
2024-04-24T12:48:21.050Z,101843.13
2024-04-24T12:50:47.892Z,101848.97
2024-04-24T12:53:15.462Z,101842.00
2024-04-24T12:55:42.713Z,101846.50
2024-04-24T12:58:11.812Z,101848.56
2024-04-24T13:00:38.694Z,101849.44
2024-04-24T13:03:05.677Z,101852.22
2024-04-24T13:05:33.256Z,101850.16
2024-04-24T13:08:00.149Z,101842.16
2024-04-24T13:10:26.961Z,101833.63
2024-04-24T13:12:56.148Z,101821.38
2024-04-24T13:15:22.911Z,101819.47
2024-04-24T13:17:49.778Z,101816.50
2024-04-24T13:20:16.812Z,101820.41
2024-04-24T13:22:43.656Z,101824.88
2024-04-24T13:25:10.393Z,101820.56
2024-04-24T13:27:40.113Z,101814.25
2024-04-24T13:30:09.441Z,101821.03
2024-04-24T13:32:37.091Z,101808.72
2024-04-24T13:35:04.021Z,101803.44
2024-04-24T13:37:33.096Z,101806.78
2024-04-24T13:39:59.987Z,101799.97
2024-04-24T13:42:26.771Z,101798.75
2024-04-24T13:44:55.718Z,101789.47
2024-04-24T13:47:23.164Z,101791.84
2024-04-24T13:49:52.876Z,101794.63
2024-04-24T13:52:19.630Z,101778.59
2024-04-24T13:54:46.366Z,101789.44
2024-04-24T13:57:13.162Z,101780.53
2024-04-24T13:59:39.959Z,101781.81
2024-04-24T14:02:10.047Z,101778.16
2024-04-24T14:04:36.830Z,101773.00
2024-04-24T14:07:03.618Z,101770.84
2024-04-24T14:09:30.342Z,101770.69
2024-04-24T14:11:57.155Z,101764.28
2024-04-24T14:14:24.464Z,101748.00
2024-04-24T14:16:51.361Z,101743.53
2024-04-24T14:19:20.868Z,101738.66
2024-04-24T14:21:47.651Z,101740.69
2024-04-24T14:24:15.088Z,101735.28
2024-04-24T14:26:41.884Z,101734.00
2024-04-24T14:29:14.184Z,101735.22
2024-04-24T14:31:44.428Z,101744.19
2024-04-24T14:34:11.684Z,101736.84
2024-04-24T14:36:38.502Z,101739.44
2024-04-24T14:39:05.296Z,101743.91
2024-04-24T14:41:32.016Z,101747.03
2024-04-24T14:43:58.978Z,101743.47
2024-04-24T14:46:25.852Z,101736.16
2024-04-24T14:48:52.736Z,101734.94
2024-04-24T14:51:19.587Z,101723.13
2024-04-24T14:53:47.035Z,101720.06
2024-04-24T14:56:16.482Z,101717.41
2024-04-24T14:58:43.240Z,101723.13
2024-04-24T15:01:10.249Z,101721.34
2024-04-24T15:03:37.538Z,101719.47
2024-04-24T15:06:04.951Z,101718.34
2024-04-24T15:08:31.917Z,101716.66
2024-04-24T15:10:59.044Z,101714.09
2024-04-24T15:13:25.894Z,101714.91
2024-04-24T15:15:52.765Z,101705.78
2024-04-24T15:18:19.670Z,101709.84
2024-04-24T15:20:46.634Z,101699.16
2024-04-24T15:23:14.825Z,101701.63
2024-04-24T15:25:43.850Z,101696.13
2024-04-24T15:28:10.684Z,101691.09
2024-04-24T15:30:37.460Z,101694.56
2024-04-24T15:33:06.821Z,101702.06
2024-04-24T15:35:33.799Z,101704.31
2024-04-24T15:38:00.714Z,101703.84
2024-04-24T15:40:27.585Z,101692.31
2024-04-24T15:42:54.317Z,101691.19
2024-04-24T15:45:23.293Z,101691.53
2024-04-24T15:47:50.265Z,101685.97
2024-04-24T15:50:17.179Z,101685.31
2024-04-24T15:52:46.542Z,101678.59
2024-04-24T15:55:13.990Z,101673.41
2024-04-24T15:57:42.655Z,101676.47
2024-04-24T16:00:10.254Z,101671.94
2024-04-24T16:02:37.155Z,101683.69
2024-04-24T16:05:04.317Z,101690.59
2024-04-24T16:07:31.100Z,101673.41
2024-04-24T16:09:59.599Z,101669.84
2024-04-24T16:12:29.898Z,101672.53
2024-04-24T16:14:56.778Z,101668.47
2024-04-24T16:17:23.629Z,101674.78
2024-04-24T16:19:52.811Z,101663.31
2024-04-24T16:22:19.618Z,101671.06
2024-04-24T16:24:46.416Z,101670.41
2024-04-24T16:27:13.387Z,101666.50
2024-04-24T16:29:40.708Z,101664.22
2024-04-24T16:32:07.763Z,101659.72
2024-04-24T16:34:34.721Z,101663.09
2024-04-24T16:37:03.809Z,101657.94
2024-04-24T16:39:30.587Z,101657.84
2024-04-24T16:41:57.345Z,101660.09
2024-04-24T16:44:24.203Z,101661.50
2024-04-24T16:46:51.035Z,101667.69
2024-04-24T16:49:20.053Z,101660.97
2024-04-24T16:51:46.807Z,101660.03
2024-04-24T16:54:13.536Z,101663.47
2024-04-24T16:56:40.314Z,101657.16
2024-04-24T16:59:07.158Z,101659.75
2024-04-24T17:01:38.987Z,101652.94
2024-04-24T17:04:05.862Z,101650.72
2024-04-24T17:06:32.715Z,101649.63
2024-04-24T17:08:59.599Z,101651.09
2024-04-24T17:11:26.777Z,101653.81
2024-04-24T17:13:54.571Z,101650.31
2024-04-24T17:16:21.278Z,101653.66
2024-04-24T17:18:50.415Z,101643.03
2024-04-24T17:21:21.955Z,101652.78
2024-04-24T17:23:48.755Z,101651.53
2024-04-24T17:26:26.875Z,101650.53
2024-04-24T17:29:02.421Z,101653.81
2024-04-24T17:31:29.257Z,101651.13
2024-04-24T17:34:00.544Z,101649.66
2024-04-24T17:36:29.426Z,101645.25
2024-04-24T17:38:56.226Z,101643.78
2024-04-24T17:41:24.623Z,101641.22
2024-04-24T17:43:51.471Z,101637.81
2024-04-24T17:46:20.665Z,101643.00
2024-04-24T17:48:47.502Z,101633.69
2024-04-24T17:51:14.304Z,101634.78
2024-04-24T17:53:44.070Z,101632.16
2024-04-24T17:56:10.950Z,101641.22
2024-04-24T17:58:37.708Z,101633.53
2024-04-24T18:01:04.680Z,101637.00
2024-04-24T18:03:31.816Z,101634.03
2024-04-24T18:05:58.696Z,101636.38
2024-04-24T18:08:25.460Z,101636.53
2024-04-24T18:10:52.806Z,101629.13
2024-04-24T18:13:19.588Z,101640.06
2024-04-24T18:15:47.575Z,101643.41
2024-04-24T18:18:14.971Z,101642.03
2024-04-24T18:20:42.414Z,101639.31
2024-04-24T18:23:14.727Z,101637.38
2024-04-24T18:25:42.705Z,101654.28
2024-04-24T18:28:13.319Z,101647.19
2024-04-24T18:30:40.171Z,101650.09
2024-04-24T18:33:10.107Z,101655.00
2024-04-24T18:35:36.988Z,101651.50
2024-04-24T18:38:03.932Z,101645.63
2024-04-24T18:40:31.552Z,101642.88
2024-04-24T18:42:58.556Z,101641.41
2024-04-24T18:45:25.300Z,101639.56
2024-04-24T18:47:52.318Z,101635.25
2024-04-24T18:50:19.958Z,101644.97
2024-04-24T18:52:46.958Z,101641.09
2024-04-24T18:55:13.727Z,101640.03
2024-04-24T18:57:44.072Z,101640.56
2024-04-24T19:00:16.566Z,101638.63
2024-04-24T19:02:46.463Z,101641.16
2024-04-24T19:05:16.965Z,101631.28
2024-04-24T19:07:43.895Z,101637.03
2024-04-24T19:10:10.844Z,101634.03
2024-04-24T19:12:37.738Z,101634.56
2024-04-24T19:15:04.874Z,101634.63
2024-04-24T19:17:31.819Z,101639.50
2024-04-24T19:19:58.682Z,101644.75
2024-04-24T19:22:25.531Z,101636.44
2024-04-24T19:24:52.366Z,101642.88
2024-04-24T19:27:26.643Z,101637.38
2024-04-24T19:30:01.927Z,101638.22
2024-04-24T19:32:31.311Z,101633.91
2024-04-24T19:34:59.024Z,101631.97
2024-04-24T19:37:30.266Z,101631.59
2024-04-24T19:39:57.011Z,101632.47
2024-04-24T19:42:23.855Z,101632.97
2024-04-24T19:44:50.684Z,101631.03
2024-04-24T19:47:17.468Z,101635.91
2024-04-24T19:49:45.698Z,101631.16
2024-04-24T19:52:12.513Z,101636.03
2024-04-24T19:54:39.340Z,101631.31
2024-04-24T19:57:08.649Z,101632.16
2024-04-24T19:59:35.537Z,101625.84
2024-04-24T20:02:02.366Z,101630.72
2024-04-24T20:04:29.780Z,101621.19
2024-04-24T20:06:59.394Z,101624.84
2024-04-24T20:09:26.313Z,101624.94
2024-04-24T20:11:53.424Z,101622.19
2024-04-24T20:14:20.416Z,101616.66
2024-04-24T20:16:47.192Z,101624.31
2024-04-24T20:19:17.586Z,101615.59
2024-04-24T20:21:45.922Z,101618.44
2024-04-24T20:24:13.793Z,101612.94
2024-04-24T20:26:40.853Z,101613.34
2024-04-24T20:29:07.754Z,101615.41
2024-04-24T20:31:35.474Z,101614.28
2024-04-24T20:34:04.490Z,101615.91
2024-04-24T20:36:34.013Z,101613.19
2024-04-24T20:39:01.765Z,101608.44
2024-04-24T20:41:30.691Z,101608.50
2024-04-24T20:43:57.554Z,101604.56
2024-04-24T20:46:24.277Z,101608.22
2024-04-24T20:48:53.259Z,101609.84
2024-04-24T20:51:20.458Z,101613.50
2024-04-24T20:53:47.432Z,101606.31
2024-04-24T20:56:17.742Z,101607.91
2024-04-24T20:58:44.674Z,101611.13
2024-04-24T21:01:11.503Z,101603.19
2024-04-24T21:03:39.491Z,101606.41
2024-04-24T21:06:07.628Z,101604.03
2024-04-24T21:08:38.610Z,101598.09
2024-04-24T21:11:05.999Z,101604.09
2024-04-24T21:13:33.168Z,101599.38
2024-04-24T21:15:59.984Z,101601.81
2024-04-24T21:18:26.941Z,101600.22
2024-04-24T21:20:57.890Z,101599.84
2024-04-24T21:23:24.696Z,101595.13
2024-04-24T21:25:51.667Z,101588.75
2024-04-24T21:28:20.747Z,101579.66
2024-04-24T21:30:49.542Z,101587.66
2024-04-24T21:33:16.696Z,101586.06
2024-04-24T21:35:44.444Z,101590.06
2024-04-24T21:38:11.312Z,101587.72
2024-04-24T21:40:38.067Z,101579.75
2024-04-24T21:43:06.141Z,101587.75
2024-04-24T21:45:32.952Z,101574.25
2024-04-24T21:47:59.808Z,101573.09
2024-04-24T21:50:26.568Z,101573.94
2024-04-24T21:52:53.443Z,101575.94
2024-04-24T21:55:20.159Z,101570.78
2024-04-24T21:57:46.867Z,101568.81
2024-04-24T22:00:13.839Z,101566.47
2024-04-24T22:02:40.717Z,101563.31
2024-04-24T22:05:07.693Z,101566.53
2024-04-24T22:07:34.539Z,101554.22
2024-04-24T22:10:01.278Z,101553.47
2024-04-24T22:12:28.155Z,101548.03
2024-04-24T22:14:55.410Z,101558.84
2024-04-24T22:17:27.650Z,101550.97
2024-04-24T22:19:55.924Z,101542.25
2024-04-24T22:22:23.671Z,101544.28
2024-04-24T22:24:51.424Z,101540.75
2024-04-24T22:27:18.192Z,101530.44
2024-04-24T22:29:47.476Z,101529.69
2024-04-24T22:32:14.369Z,101523.00
2024-04-24T22:34:41.137Z,101520.25
2024-04-24T22:37:08.623Z,101521.88
2024-04-24T22:39:35.895Z,101527.09
2024-04-24T22:42:02.683Z,101522.34
2024-04-24T22:44:29.606Z,101513.63
2024-04-24T22:46:56.473Z,101510.47
2024-04-24T22:49:23.322Z,101508.53
2024-04-24T22:51:50.125Z,101510.13
2024-04-24T22:54:16.895Z,101502.59
2024-04-24T22:56:43.724Z,101504.22
2024-04-24T22:59:10.869Z,101497.94
2024-04-24T23:01:40.306Z,101496.75
2024-04-24T23:04:07.223Z,101492.03
2024-04-24T23:06:34.436Z,101490.88
2024-04-24T23:09:01.194Z,101487.72
2024-04-24T23:11:28.036Z,101494.91
2024-04-24T23:13:54.840Z,101481.41
2024-04-24T23:16:21.574Z,101491.38
2024-04-24T23:18:48.359Z,101483.88
2024-04-24T23:21:15.270Z,101469.53
2024-04-24T23:23:42.174Z,101473.84
2024-04-24T23:26:09.016Z,101464.94
2024-04-24T23:28:38.602Z,101470.69
2024-04-24T23:31:05.422Z,101468.06
2024-04-24T23:33:32.266Z,101469.81
2024-04-24T23:36:05.489Z,101464.44
2024-04-24T23:38:33.410Z,101468.19
2024-04-24T23:41:04.425Z,101466.41
2024-04-24T23:43:31.262Z,101466.81
2024-04-24T23:45:58.107Z,101461.72
2024-04-24T23:48:24.901Z,101462.78
2024-04-24T23:50:52.079Z,101458.28
2024-04-24T23:53:18.956Z,101459.00
2024-04-24T23:55:46.296Z,101452.63
2024-04-24T23:58:13.152Z,101443.56
